Time;durP1;ratioP1;P1;durP2;ratioP2;P2;SDS_P1;SDS_P2;PMS_P1;PMS_P2;Temp;Humidity;BMP_temperature;BMP_pressure;BME280_temperature;BME280_humidity;BME280_pressure;Samples;Min_cycle;Max_cycle;Signal;HPM_P1;HPM_P2
2023/08/01 00:00:28;;;;;;;16.77;5.82;;;;;;;16.16;100.00;92266.69;2101653;28;20461;-84
2023/08/01 00:01:29;;;;;;;12.25;5.30;;;;;;;16.09;100.00;92262.44;2100514;27;20027;-84
2023/08/01 00:02:30;;;;;;;14.70;5.93;;;;;;;16.18;100.00;92255.44;2103565;28;20035;-85
2023/08/01 00:03:32;;;;;;;15.63;5.93;;;;;;;16.10;100.00;92253.13;2104146;28;20538;-84
2023/08/01 00:04:33;;;;;;;13.48;5.97;;;;;;;15.97;100.00;92236.53;2101749;28;20078;-85
2023/08/01 00:05:34;;;;;;;11.90;5.80;;;;;;;15.92;100.00;92248.00;2091125;28;20600;-85
2023/08/01 00:06:35;;;;;;;18.52;6.35;;;;;;;15.99;100.00;92253.00;2090454;28;20024;-85
2023/08/01 00:07:36;;;;;;;16.77;6.07;;;;;;;16.02;100.00;92249.38;2098028;28;20121;-85
2023/08/01 00:08:37;;;;;;;12.50;6.10;;;;;;;16.09;100.00;92240.88;2107190;28;20020;-83
2023/08/01 00:09:38;;;;;;;16.23;6.40;;;;;;;16.04;100.00;92236.16;2106892;28;20027;-84
2023/08/01 00:10:42;;;;;;;10.95;6.28;;;;;;;16.04;100.00;92232.72;2088488;28;20032;-84
2023/08/01 00:11:44;;;;;;;11.82;5.88;;;;;;;16.02;100.00;92232.44;2091522;28;20025;-85
2023/08/01 00:12:45;;;;;;;15.65;6.20;;;;;;;15.93;100.00;92230.63;2084937;28;20036;-85
2023/08/01 00:13:46;;;;;;;11.65;5.78;;;;;;;16.30;100.00;92232.78;2090606;28;20024;-84
2023/08/01 00:14:47;;;;;;;13.32;6.30;;;;;;;16.19;100.00;92229.94;2098315;28;20024;-82
2023/08/01 00:15:47;;;;;;;11.18;5.85;;;;;;;16.14;100.00;92225.22;2093180;28;20048;-83
2023/08/01 00:16:51;;;;;;;13.25;6.00;;;;;;;16.11;100.00;92232.28;2091011;28;20110;-84
2023/08/01 00:17:52;;;;;;;11.10;5.70;;;;;;;16.05;100.00;92226.84;2105063;28;20039;-82
2023/08/01 00:18:53;;;;;;;12.63;5.97;;;;;;;16.00;100.00;92218.69;2107005;28;20028;-85
2023/08/01 00:19:54;;;;;;;15.43;5.75;;;;;;;15.98;100.00;92219.19;2115443;28;20032;-85
2023/08/01 00:20:55;;;;;;;13.13;6.38;;;;;;;16.17;100.00;92214.25;2112154;27;20622;-85
2023/08/01 00:21:56;;;;;;;13.77;5.72;;;;;;;16.22;100.00;92215.53;2122832;27;20047;-84
2023/08/01 00:22:57;;;;;;;15.88;6.07;;;;;;;16.22;100.00;92216.25;2099770;28;20021;-84
2023/08/01 00:23:58;;;;;;;12.90;5.82;;;;;;;16.24;100.00;92216.53;2098531;28;20087;-84
2023/08/01 00:24:59;;;;;;;12.13;6.00;;;;;;;16.38;100.00;92217.66;2098446;28;20024;-85
2023/08/01 00:26:00;;;;;;;15.60;6.10;;;;;;;16.32;100.00;92208.75;2082477;28;20508;-83
2023/08/01 00:27:01;;;;;;;14.95;6.03;;;;;;;16.15;100.00;92215.91;2098635;28;20111;-84
2023/08/01 00:28:02;;;;;;;12.48;5.75;;;;;;;16.66;100.00;92204.44;2098434;28;20021;-85
2023/08/01 00:29:03;;;;;;;11.30;6.03;;;;;;;16.48;100.00;92210.91;2104420;28;20050;-85
2023/08/01 00:30:05;;;;;;;12.70;6.10;;;;;;;16.56;100.00;92208.53;2090084;28;20029;-83
2023/08/01 00:31:12;;;;;;;10.60;6.28;;;;;;;16.46;100.00;92202.56;2103672;28;20449;-83
2023/08/01 00:32:13;;;;;;;15.50;6.47;;;;;;;16.36;100.00;92209.28;2114241;28;20027;-84
2023/08/01 00:33:14;;;;;;;12.48;6.35;;;;;;;16.31;100.00;92197.22;2106893;28;20533;-83
2023/08/01 00:34:15;;;;;;;13.05;5.45;;;;;;;16.36;100.00;92203.91;2106659;28;20107;-85
2023/08/01 00:35:17;;;;;;;13.75;6.43;;;;;;;16.35;100.00;92197.03;2105058;28;20034;-85
2023/08/01 00:36:18;;;;;;;13.63;5.40;;;;;;;16.38;100.00;92195.34;2099823;28;20040;-85
2023/08/01 00:37:19;;;;;;;19.65;6.55;;;;;;;16.30;100.00;92205.81;2113743;28;20099;-83
2023/08/01 00:38:20;;;;;;;14.75;5.97;;;;;;;16.39;100.00;92197.56;2106807;28;20101;-83
2023/08/01 00:39:22;;;;;;;13.32;5.95;;;;;;;16.49;100.00;92192.75;2090039;28;20086;-84
2023/08/01 00:40:29;;;;;;;15.65;6.13;;;;;;;16.45;100.00;92201.06;2103904;28;20078;-84
2023/08/01 00:41:30;;;;;;;14.73;6.18;;;;;;;16.88;100.00;92192.41;2114951;28;20551;-83
2023/08/01 00:42:31;;;;;;;13.48;5.97;;;;;;;16.83;100.00;92193.84;2106364;28;20036;-85
2023/08/01 00:43:32;;;;;;;14.50;5.65;;;;;;;16.61;100.00;92188.94;2112237;28;20023;-85
2023/08/01 00:44:33;;;;;;;12.57;5.78;;;;;;;16.54;100.00;92203.59;2094474;28;20087;-83
2023/08/01 00:45:34;;;;;;;13.95;6.00;;;;;;;16.45;100.00;92186.81;2098237;28;20131;-83
2023/08/01 00:46:35;;;;;;;22.67;7.70;;;;;;;16.46;100.00;92191.00;2098343;28;20032;-85
2023/08/01 00:47:36;;;;;;;11.75;5.85;;;;;;;16.44;100.00;92186.09;2089711;28;20033;-84
2023/08/01 00:48:37;;;;;;;9.70;5.68;;;;;;;16.50;100.00;92186.13;2090128;28;20500;-84
2023/08/01 00:49:39;;;;;;;15.18;6.63;;;;;;;16.42;100.00;92185.84;2104635;28;20024;-82
2023/08/01 00:50:40;;;;;;;19.30;6.50;;;;;;;16.40;100.00;92193.66;2089827;28;20048;-84
2023/08/01 00:51:47;;;;;;;11.32;6.13;;;;;;;16.38;100.00;92189.97;2089913;28;20021;-85
2023/08/01 00:52:51;;;;;;;9.75;5.78;;;;;;;16.43;100.00;92194.66;2090284;28;20056;-82
2023/08/01 00:53:53;;;;;;;17.90;6.43;;;;;;;16.36;100.00;92193.84;2098674;28;20449;-83
2023/08/01 00:54:54;;;;;;;13.50;6.45;;;;;;;16.48;100.00;92191.28;2115074;28;20107;-81
2023/08/01 00:55:57;;;;;;;13.27;6.30;;;;;;;16.49;100.00;92188.09;2106817;27;20023;-83
2023/08/01 00:57:00;;;;;;;16.75;6.40;;;;;;;16.51;100.00;92195.72;2123631;27;20478;-81
2023/08/01 00:58:02;;;;;;;15.65;6.18;;;;;;;16.50;100.00;92192.28;2107885;28;20031;-84
2023/08/01 00:59:03;;;;;;;12.82;6.43;;;;;;;16.55;100.00;92180.03;2093748;28;20132;-82
2023/08/01 01:00:04;;;;;;;16.73;6.78;;;;;;;16.74;100.00;92199.41;2107957;28;20028;-84
2023/08/01 01:01:05;;;;;;;15.68;6.05;;;;;;;16.60;100.00;92185.53;2093539;28;20048;-83
2023/08/01 01:02:06;;;;;;;14.63;6.45;;;;;;;16.51;100.00;92191.06;2091086;28;20025;-84
2023/08/01 01:03:07;;;;;;;15.88;6.35;;;;;;;16.59;100.00;92181.34;2104617;28;20028;-84
2023/08/01 01:04:08;;;;;;;13.85;6.25;;;;;;;16.62;100.00;92183.06;2118589;27;20379;-84
2023/08/01 01:05:09;;;;;;;12.20;6.55;;;;;;;16.54;100.00;92175.88;2106303;28;20119;-84
2023/08/01 01:06:24;;;;;;;14.65;6.20;;;;;;;16.57;100.00;92181.06;2102787;28;20022;-84
2023/08/01 01:07:26;;;;;;;15.10;6.63;;;;;;;16.29;100.00;92190.84;2106202;28;20546;-83
2023/08/01 01:08:27;;;;;;;15.57;6.35;;;;;;;16.42;100.00;92191.22;2098303;28;20492;-84
2023/08/01 01:09:31;;;;;;;12.25;5.88;;;;;;;16.45;100.00;92184.13;2107827;27;20127;-83
2023/08/01 01:10:32;;;;;;;15.00;6.88;;;;;;;16.29;100.00;92185.47;2100220;28;20024;-83
2023/08/01 01:11:33;;;;;;;18.20;6.25;;;;;;;15.96;100.00;92180.44;2089816;28;20206;-84
2023/08/01 01:12:34;;;;;;;17.33;6.60;;;;;;;15.96;100.00;92188.50;2092412;28;20017;-83
2023/08/01 01:13:35;;;;;;;17.17;6.68;;;;;;;16.06;100.00;92177.09;2109964;27;20396;-84
2023/08/01 01:14:36;;;;;;;13.25;6.38;;;;;;;16.05;100.00;92170.22;2102573;28;20029;-84
2023/08/01 01:15:37;;;;;;;19.50;6.65;;;;;;;15.82;100.00;92166.56;2089515;28;20051;-83
2023/08/01 01:16:38;;;;;;;16.38;6.82;;;;;;;15.86;100.00;92174.44;2089813;28;20039;-83
2023/08/01 01:17:39;;;;;;;19.20;6.47;;;;;;;16.04;100.00;92163.38;2097915;28;20067;-83
2023/08/01 01:18:41;;;;;;;17.52;7.03;;;;;;;15.79;100.00;92164.78;2089666;28;20025;-83
2023/08/01 01:19:42;;;;;;;16.63;7.65;;;;;;;15.78;100.00;92157.94;2091170;28;20025;-82
2023/08/01 01:20:43;;;;;;;13.57;6.32;;;;;;;15.65;100.00;92154.81;2112303;28;20031;-83
2023/08/01 01:21:46;;;;;;;15.10;6.47;;;;;;;15.46;100.00;92154.31;2117501;27;20439;-84
2023/08/01 01:22:47;;;;;;;20.23;7.30;;;;;;;15.41;100.00;92156.94;2108952;28;20028;-84
2023/08/01 01:23:50;;;;;;;15.18;6.55;;;;;;;15.30;100.00;92149.44;2098033;28;20032;-81
2023/08/01 01:24:52;;;;;;;15.00;6.10;;;;;;;15.34;100.00;92158.81;2097680;28;20032;-83
2023/08/01 01:25:55;;;;;;;18.08;7.13;;;;;;;15.38;100.00;92147.13;2089679;28;20029;-83
2023/08/01 01:26:59;;;;;;;14.60;6.80;;;;;;;15.52;100.00;92147.03;2081773;28;20494;-85
2023/08/01 01:28:04;;;;;;;19.73;6.68;;;;;;;15.39;100.00;92143.94;2096883;28;20111;-83
2023/08/01 01:29:07;;;;;;;17.75;6.82;;;;;;;15.39;100.00;92154.72;2097771;28;20028;-83
2023/08/01 01:30:08;;;;;;;15.70;6.95;;;;;;;15.38;100.00;92147.13;2098284;28;20226;-82
2023/08/01 01:31:09;;;;;;;20.08;7.15;;;;;;;15.52;100.00;92143.63;2092796;28;20048;-84
2023/08/01 01:32:11;;;;;;;15.00;6.28;;;;;;;15.49;100.00;92156.06;2089690;28;20358;-83
2023/08/01 01:33:12;;;;;;;13.82;6.95;;;;;;;15.36;100.00;92147.56;2091370;28;20013;-86
2023/08/01 01:34:15;;;;;;;15.15;7.13;;;;;;;15.25;100.00;92150.13;2089764;28;20032;-85
2023/08/01 01:35:16;;;;;;;17.17;7.22;;;;;;;15.09;100.00;92152.09;2081758;28;20064;-84
2023/08/01 01:36:16;;;;;;;16.95;7.10;;;;;;;15.18;100.00;92153.94;2090403;28;20059;-83
2023/08/01 01:37:17;;;;;;;14.93;7.05;;;;;;;15.22;100.00;92146.41;2117622;28;20068;-82
2023/08/01 01:38:18;;;;;;;13.52;7.25;;;;;;;15.15;100.00;92135.31;2120450;28;20405;-84
2023/08/01 01:39:20;;;;;;;15.23;7.13;;;;;;;15.18;100.00;92139.72;2116904;28;20015;-83
2023/08/01 01:40:21;;;;;;;20.42;7.40;;;;;;;15.19;100.00;92125.06;2122730;28;20034;-85
2023/08/01 01:41:22;;;;;;;13.27;6.28;;;;;;;15.12;100.00;92115.44;2105528;28;20009;-83
2023/08/01 01:42:23;;;;;;;16.67;6.75;;;;;;;15.24;100.00;92116.34;2103609;28;20040;-85
2023/08/01 01:43:24;;;;;;;20.55;7.22;;;;;;;15.21;100.00;92106.50;2100226;28;20025;-82
2023/08/01 01:44:25;;;;;;;17.70;6.97;;;;;;;15.22;100.00;92102.59;2105650;28;20016;-83
2023/08/01 01:45:27;;;;;;;17.75;7.60;;;;;;;15.22;100.00;92103.31;2123494;28;20032;-82
2023/08/01 01:46:28;;;;;;;19.50;6.80;;;;;;;15.27;100.00;92104.59;2116176;28;20073;-82
2023/08/01 01:47:28;;;;;;;16.58;7.40;;;;;;;15.30;100.00;92104.41;2102242;28;20052;-85
2023/08/01 01:48:30;;;;;;;17.55;6.60;;;;;;;15.29;100.00;92102.94;2107130;28;20016;-85
2023/08/01 01:49:30;;;;;;;12.50;6.65;;;;;;;15.38;100.00;92093.25;2099170;28;20024;-84
2023/08/01 01:50:31;;;;;;;14.70;7.20;;;;;;;15.32;100.00;92102.00;2082421;28;20026;-83
2023/08/01 01:51:32;;;;;;;15.10;6.57;;;;;;;15.47;100.00;92106.59;2105000;28;20048;-84
2023/08/01 01:52:33;;;;;;;18.35;6.80;;;;;;;15.36;100.00;92104.47;2107171;28;20020;-84
2023/08/01 01:53:34;;;;;;;11.98;6.72;;;;;;;15.35;100.00;92106.44;2090826;28;20024;-85
2023/08/01 01:54:35;;;;;;;14.90;6.15;;;;;;;15.47;100.00;92101.19;2101076;28;20032;-84
2023/08/01 01:55:36;;;;;;;16.35;7.18;;;;;;;15.28;100.00;92108.81;2105276;28;20035;-82
2023/08/01 01:56:37;;;;;;;16.95;7.55;;;;;;;15.34;100.00;92110.34;2100246;28;20102;-83
2023/08/01 01:57:38;;;;;;;13.98;6.47;;;;;;;15.41;100.00;92103.84;2108319;28;20085;-83
2023/08/01 01:58:39;;;;;;;21.45;7.10;;;;;;;15.22;100.00;92107.97;2116335;28;20024;-83
2023/08/01 01:59:40;;;;;;;12.15;6.70;;;;;;;15.35;100.00;92109.13;2107043;28;20104;-83
2023/08/01 02:00:41;;;;;;;20.27;7.03;;;;;;;15.22;100.00;92107.97;2113989;28;20356;-84
2023/08/01 02:01:42;;;;;;;13.13;6.60;;;;;;;15.16;100.00;92109.88;2107600;28;20027;-84
2023/08/01 02:02:43;;;;;;;18.65;7.57;;;;;;;15.14;100.00;92117.66;2098517;28;20503;-85
2023/08/01 02:03:44;;;;;;;19.77;7.30;;;;;;;15.14;100.00;92115.69;2097732;28;20066;-85
2023/08/01 02:04:46;;;;;;;18.50;6.50;;;;;;;15.24;100.00;92119.03;2113962;28;20441;-83
2023/08/01 02:05:49;;;;;;;15.85;7.07;;;;;;;15.31;100.00;92121.31;2113658;28;20408;-83
2023/08/01 02:06:52;;;;;;;15.20;6.03;;;;;;;15.33;100.00;92113.50;2094049;28;20021;-84
2023/08/01 02:07:53;;;;;;;12.75;6.40;;;;;;;15.52;100.00;92117.41;2102912;28;20490;-86
2023/08/01 02:08:54;;;;;;;17.60;6.65;;;;;;;15.45;100.00;92117.06;2093719;28;20025;-85
2023/08/01 02:09:55;;;;;;;13.20;6.20;;;;;;;15.32;100.00;92109.31;2095475;28;20020;-83
2023/08/01 02:10:58;;;;;;;14.00;6.30;;;;;;;15.40;100.00;92115.78;2097659;28;20115;-84
2023/08/01 02:12:00;;;;;;;15.15;6.32;;;;;;;15.54;100.00;92109.63;2092234;28;20127;-85
2023/08/01 02:13:02;;;;;;;17.80;6.30;;;;;;;15.49;100.00;92110.28;2092844;28;20080;-85
2023/08/01 02:14:04;;;;;;;14.50;6.30;;;;;;;15.51;100.00;92107.88;2089326;28;20040;-86
2023/08/01 02:15:05;;;;;;;14.20;6.75;;;;;;;15.47;100.00;92107.31;2105733;28;20372;-84
2023/08/01 02:16:06;;;;;;;13.00;6.30;;;;;;;15.45;100.00;92107.06;2106298;28;20056;-84
2023/08/01 02:17:07;;;;;;;14.80;6.18;;;;;;;15.47;100.00;92104.63;2112418;28;20650;-83
2023/08/01 02:18:08;;;;;;;12.55;5.80;;;;;;;15.50;100.00;92113.72;2102483;28;20070;-84
2023/08/01 02:19:09;;;;;;;17.05;6.20;;;;;;;15.60;100.00;92117.75;2091052;28;20028;-85
2023/08/01 02:20:10;;;;;;;13.95;5.28;;;;;;;15.80;100.00;92109.72;2089694;28;20123;-85
2023/08/01 02:22:17;;;;;;;12.25;5.05;;;;;;;15.83;100.00;92116.81;2148334;27;20164;-83
2023/08/01 02:23:21;;;;;;;15.85;5.80;;;;;;;15.86;100.00;92101.69;2132480;27;20163;-85
2023/08/01 02:24:22;;;;;;;15.63;5.70;;;;;;;15.71;100.00;92099.03;2111229;28;20024;-86
2023/08/01 02:25:23;;;;;;;14.02;5.93;;;;;;;15.89;100.00;92110.75;2113926;27;20140;-86
2023/08/01 02:26:25;;;;;;;13.27;5.60;;;;;;;15.84;100.00;92109.47;2111757;28;20020;-82
2023/08/01 02:27:26;;;;;;;12.52;5.78;;;;;;;15.81;100.00;92105.06;2096735;28;20099;-83
2023/08/01 02:28:27;;;;;;;14.13;5.50;;;;;;;15.83;100.00;92105.31;2113469;27;20023;-85
2023/08/01 02:29:28;;;;;;;11.77;5.40;;;;;;;15.77;100.00;92107.94;2116038;28;20034;-84
2023/08/01 02:30:29;;;;;;;12.43;5.88;;;;;;;15.82;100.00;92096.50;2096529;28;20035;-87
2023/08/01 02:31:30;;;;;;;12.63;5.50;;;;;;;15.65;100.00;92097.50;2119048;28;20027;-85
2023/08/01 02:32:31;;;;;;;10.82;5.78;;;;;;;15.74;100.00;92090.03;2126621;27;20059;-86
2023/08/01 02:33:32;;;;;;;13.35;5.93;;;;;;;15.83;100.00;92097.22;2113474;28;20069;-85
2023/08/01 02:34:33;;;;;;;13.30;5.68;;;;;;;15.85;100.00;92086.72;2093250;28;20029;-87
2023/08/01 02:35:34;;;;;;;13.43;5.32;;;;;;;15.74;100.00;92089.28;2096763;28;20021;-87
2023/08/01 02:36:35;;;;;;;12.50;5.10;;;;;;;15.87;100.00;92078.91;2098001;28;20079;-86
2023/08/01 02:37:36;;;;;;;14.05;5.32;;;;;;;15.86;100.00;92080.13;2088369;28;20057;-84
2023/08/01 02:38:37;;;;;;;15.02;4.90;;;;;;;15.74;100.00;92083.91;2096682;28;20025;-86
2023/08/01 02:39:38;;;;;;;13.82;5.30;;;;;;;16.02;100.00;92078.78;2107741;28;20032;-86
2023/08/01 02:40:39;;;;;;;12.05;5.35;;;;;;;16.09;100.00;92076.41;2104738;28;20054;-84
2023/08/01 02:41:41;;;;;;;9.05;4.88;;;;;;;15.96;100.00;92080.69;2098530;28;20420;-84
2023/08/01 02:42:42;;;;;;;13.38;4.68;;;;;;;16.19;100.00;92078.94;2110269;28;20023;-85
2023/08/01 02:43:43;;;;;;;10.82;4.85;;;;;;;16.03;100.00;92083.72;2104618;28;20031;-83
2023/08/01 02:44:44;;;;;;;17.17;5.28;;;;;;;15.99;100.00;92083.19;2099729;28;20159;-84
2023/08/01 02:45:45;;;;;;;13.15;5.93;;;;;;;16.10;100.00;92083.28;2088164;28;20029;-82
2023/08/01 02:46:46;;;;;;;9.60;4.45;;;;;;;16.10;100.00;92080.59;2119766;27;20059;-84
2023/08/01 02:47:47;;;;;;;10.45;4.93;;;;;;;16.09;100.00;92084.50;2119064;28;20055;-85
2023/08/01 02:48:48;;;;;;;11.73;5.18;;;;;;;15.97;100.00;92080.22;2113268;28;20023;-86
2023/08/01 02:49:49;;;;;;;13.02;5.97;;;;;;;15.98;100.00;92089.03;2104274;28;20222;-86
2023/08/01 02:50:50;;;;;;;11.98;5.38;;;;;;;15.92;100.00;92086.28;2096317;28;20115;-84
2023/08/01 02:51:51;;;;;;;15.63;5.25;;;;;;;16.01;100.00;92091.53;2096432;28;20020;-85
2023/08/01 02:52:52;;;;;;;14.73;5.22;;;;;;;16.02;100.00;92090.34;2096045;28;20028;-85
2023/08/01 02:53:53;;;;;;;16.58;4.95;;;;;;;16.03;100.00;92075.63;2092245;28;20028;-86
2023/08/01 02:54:54;;;;;;;14.68;5.07;;;;;;;16.01;100.00;92085.41;2082072;28;20033;-85
2023/08/01 02:55:56;;;;;;;12.63;5.50;;;;;;;16.09;100.00;92092.59;2080652;28;20025;-85
2023/08/01 02:56:56;;;;;;;11.38;4.70;;;;;;;16.39;100.00;92088.94;2104929;28;20021;-83
2023/08/01 02:57:57;;;;;;;10.55;4.68;;;;;;;16.35;100.00;92100.69;2109532;28;20020;-82
2023/08/01 02:58:58;;;;;;;14.90;5.20;;;;;;;16.29;100.00;92102.59;2113222;28;20020;-83
2023/08/01 02:59:59;;;;;;;12.75;4.90;;;;;;;16.20;100.00;92102.75;2106230;28;20028;-83
2023/08/01 03:01:01;;;;;;;9.25;4.75;;;;;;;16.11;100.00;92086.72;2104756;28;20024;-83
2023/08/01 03:02:02;;;;;;;9.07;4.40;;;;;;;16.05;100.00;92083.97;2105081;28;20100;-84
2023/08/01 03:03:03;;;;;;;10.65;4.63;;;;;;;16.18;100.00;92094.38;2107828;28;20024;-84
2023/08/01 03:04:06;;;;;;;12.88;5.28;;;;;;;16.29;100.00;92086.41;2105421;28;20109;-83
2023/08/01 03:05:28;;;;;;;13.75;5.32;;;;;;;16.26;100.00;92087.34;2109145;28;20023;-83
2023/08/01 03:06:31;;;;;;;11.35;4.80;;;;;;;16.20;100.00;92096.59;2111384;28;20016;-82
2023/08/01 03:07:32;;;;;;;11.55;4.55;;;;;;;16.32;100.00;92079.31;2105424;28;20079;-83
2023/08/01 03:08:33;;;;;;;17.73;4.57;;;;;;;16.34;100.00;92079.59;2105455;28;20032;-84
2023/08/01 03:09:34;;;;;;;9.63;4.47;;;;;;;16.47;100.00;92077.25;2096857;28;20304;-82
2023/08/01 03:10:35;;;;;;;17.50;5.03;;;;;;;16.39;100.00;92083.56;2086897;28;20036;-85
2023/08/01 03:11:37;;;;;;;10.55;4.75;;;;;;;16.41;100.00;92089.94;2095734;28;20021;-85
2023/08/01 03:12:38;;;;;;;14.48;5.00;;;;;;;16.36;100.00;92091.38;2099220;28;20036;-84
2023/08/01 03:13:38;;;;;;;11.23;4.72;;;;;;;16.25;100.00;92091.28;2096434;28;20392;-84
2023/08/01 03:14:41;;;;;;;10.68;4.80;;;;;;;16.45;100.00;92092.41;2086521;28;20429;-84
2023/08/01 03:15:42;;;;;;;9.70;4.43;;;;;;;16.37;100.00;92097.50;2093703;28;20136;-84
2023/08/01 03:16:43;;;;;;;9.60;4.65;;;;;;;16.55;100.00;92091.03;2097245;28;20037;-82
2023/08/01 03:17:44;;;;;;;14.23;4.63;;;;;;;16.55;100.00;92099.88;2094484;28;20416;-84
2023/08/01 03:18:45;;;;;;;9.85;4.65;;;;;;;16.47;100.00;92096.13;2079802;28;20052;-83
2023/08/01 03:19:46;;;;;;;13.80;4.68;;;;;;;16.36;100.00;92101.41;2095529;28;20031;-83
2023/08/01 03:20:47;;;;;;;10.32;4.53;;;;;;;16.39;100.00;92110.53;2112848;28;20099;-81
2023/08/01 03:21:48;;;;;;;11.18;4.28;;;;;;;16.43;100.00;92108.34;2113787;28;20036;-83
2023/08/01 03:22:49;;;;;;;9.65;4.40;;;;;;;16.51;100.00;92115.53;2096642;28;20020;-83
2023/08/01 03:23:50;;;;;;;9.77;4.22;;;;;;;16.68;100.00;92117.63;2096357;28;20055;-84
2023/08/01 03:24:51;;;;;;;13.05;4.70;;;;;;;16.51;100.00;92118.25;2095981;28;20048;-84
2023/08/01 03:25:59;;;;;;;11.05;4.50;;;;;;;16.59;100.00;92115.81;2096043;28;20473;-84
2023/08/01 03:27:03;;;;;;;9.93;4.57;;;;;;;16.57;100.00;92120.97;2106041;28;20036;-83
2023/08/01 03:28:04;;;;;;;15.73;4.65;;;;;;;16.61;100.00;92122.22;2096365;28;20025;-84
2023/08/01 03:29:05;;;;;;;13.20;4.63;;;;;;;16.43;100.00;92130.66;2088220;28;20025;-83
2023/08/01 03:30:08;;;;;;;10.35;5.05;;;;;;;16.56;100.00;92124.91;2108256;27;20139;-85
2023/08/01 03:31:09;;;;;;;10.00;4.85;;;;;;;16.39;100.00;92132.84;2109690;28;20020;-83
2023/08/01 03:32:10;;;;;;;11.48;4.43;;;;;;;16.52;100.00;92119.72;2093191;28;20022;-84
2023/08/01 03:33:11;;;;;;;12.25;4.82;;;;;;;16.24;100.00;92132.19;2090150;28;20072;-80
2023/08/01 03:34:12;;;;;;;13.38;5.53;;;;;;;16.32;100.00;92125.16;2091276;28;20035;-81
2023/08/01 03:35:13;;;;;;;10.65;4.68;;;;;;;16.12;100.00;92123.25;2103586;28;20080;-83
2023/08/01 03:36:14;;;;;;;10.48;4.18;;;;;;;16.04;100.00;92120.25;2086829;28;20050;-84
2023/08/01 03:37:16;;;;;;;13.10;4.65;;;;;;;16.00;100.00;92116.28;2104207;28;20108;-83
2023/08/01 03:38:17;;;;;;;14.10;5.53;;;;;;;15.92;100.00;92128.69;2111448;27;20110;-82
2023/08/01 03:39:18;;;;;;;12.32;4.97;;;;;;;15.93;100.00;92127.47;2102450;28;20483;-83
2023/08/01 03:40:19;;;;;;;11.63;4.40;;;;;;;16.09;100.00;92122.25;2093145;28;20025;-82
2023/08/01 03:41:20;;;;;;;14.15;5.38;;;;;;;15.90;100.00;92126.47;2090067;28;20021;-82
2023/08/01 03:42:21;;;;;;;13.82;5.13;;;;;;;15.79;100.00;92116.28;2090317;28;20040;-82
2023/08/01 03:43:23;;;;;;;15.98;5.72;;;;;;;15.65;100.00;92116.38;2087837;28;20120;-83
2023/08/01 03:44:24;;;;;;;11.70;5.10;;;;;;;15.64;100.00;92120.25;2095440;28;20578;-83
2023/08/01 03:45:25;;;;;;;15.55;5.38;;;;;;;15.58;100.00;92130.94;2090560;28;20139;-82
2023/08/01 03:46:27;;;;;;;11.98;5.03;;;;;;;15.71;100.00;92128.69;2090288;28;20093;-82
2023/08/01 03:47:28;;;;;;;11.35;5.07;;;;;;;15.62;100.00;92137.63;2090375;28;20025;-82
2023/08/01 03:48:29;;;;;;;10.32;5.15;;;;;;;15.68;100.00;92134.31;2105323;28;20043;-84
2023/08/01 03:49:30;;;;;;;10.90;4.60;;;;;;;15.64;100.00;92131.81;2098401;28;20072;-82
2023/08/01 03:50:31;;;;;;;10.18;5.28;;;;;;;15.53;100.00;92134.31;2082289;28;20026;-81
2023/08/01 03:51:32;;;;;;;11.02;5.93;;;;;;;15.36;100.00;92134.88;2085861;28;20032;-82
2023/08/01 03:52:32;;;;;;;12.50;5.35;;;;;;;15.24;100.00;92127.09;2099958;28;20020;-82
2023/08/01 03:53:33;;;;;;;9.35;5.65;;;;;;;15.32;100.00;92112.00;2099139;28;20111;-83
2023/08/01 03:54:34;;;;;;;11.20;5.35;;;;;;;15.19;100.00;92119.66;2083755;28;20095;-82
2023/08/01 03:55:38;;;;;;;12.07;5.13;;;;;;;15.14;100.00;92128.41;2081995;28;20865;-84
2023/08/01 03:56:42;;;;;;;13.80;5.65;;;;;;;15.15;100.00;92125.28;2090098;28;20378;-81
2023/08/01 03:57:44;;;;;;;11.10;4.80;;;;;;;15.27;100.00;92123.44;2095775;28;20123;-84
2023/08/01 03:58:44;;;;;;;17.85;5.88;;;;;;;15.15;100.00;92130.66;2106036;28;20388;-82
2023/08/01 03:59:48;;;;;;;12.70;5.35;;;;;;;15.01;100.00;92131.41;2099418;28;20028;-83
2023/08/01 04:00:49;;;;;;;12.65;5.07;;;;;;;15.16;100.00;92134.81;2082737;28;20029;-84
2023/08/01 04:01:50;;;;;;;11.25;5.32;;;;;;;15.11;100.00;92133.53;2088890;28;20021;-83
2023/08/01 04:02:52;;;;;;;11.68;5.10;;;;;;;15.19;100.00;92135.81;2092831;28;20401;-82
2023/08/01 04:03:53;;;;;;;9.93;5.65;;;;;;;15.17;100.00;92133.59;2106793;28;20035;-82
2023/08/01 04:04:53;;;;;;;13.70;5.43;;;;;;;15.17;100.00;92133.59;2085434;28;20051;-84
2023/08/01 04:05:54;;;;;;;15.07;5.47;;;;;;;15.08;100.00;92121.00;2082273;28;20079;-83
2023/08/01 04:06:55;;;;;;;10.32;5.10;;;;;;;15.02;100.00;92125.59;2089441;28;20052;-84
2023/08/01 04:07:57;;;;;;;14.90;5.47;;;;;;;14.98;100.00;92124.28;2088137;28;20036;-84
2023/08/01 04:08:59;;;;;;;13.93;5.45;;;;;;;14.92;100.00;92108.06;2098716;28;20021;-84
2023/08/01 04:10:00;;;;;;;11.93;5.95;;;;;;;14.81;100.00;92105.22;2091900;28;20115;-83
2023/08/01 04:11:01;;;;;;;10.10;4.93;;;;;;;14.79;100.00;92092.25;2088380;28;20045;-83
2023/08/01 04:12:02;;;;;;;13.85;5.35;;;;;;;15.06;100.00;92080.38;2098075;28;20188;-83
2023/08/01 04:13:03;;;;;;;10.23;5.18;;;;;;;15.01;100.00;92094.50;2087077;28;20025;-83
2023/08/01 04:14:04;;;;;;;12.18;5.00;;;;;;;15.01;100.00;92094.50;2090301;28;20028;-84
2023/08/01 04:15:06;;;;;;;11.95;5.57;;;;;;;15.04;100.00;92092.81;2096181;28;20033;-83
2023/08/01 04:16:07;;;;;;;11.20;4.97;;;;;;;15.16;100.00;92091.03;2092691;28;20021;-84
2023/08/01 04:17:08;;;;;;;7.93;4.95;;;;;;;15.08;100.00;92093.34;2090123;28;20024;-84
2023/08/01 04:18:09;;;;;;;10.63;4.60;;;;;;;15.06;100.00;92095.78;2082055;28;20033;-82
2023/08/01 04:19:11;;;;;;;9.10;4.75;;;;;;;15.10;100.00;92085.53;2086651;28;20017;-84
2023/08/01 04:20:17;;;;;;;9.50;5.00;;;;;;;15.07;100.00;92091.88;2094248;28;20035;-83
2023/08/01 04:21:18;;;;;;;10.02;5.15;;;;;;;14.98;100.00;92081.97;2104867;28;20085;-83
2023/08/01 04:22:19;;;;;;;9.57;4.90;;;;;;;14.92;100.00;92086.53;2106638;28;20081;-83
2023/08/01 04:23:20;;;;;;;9.07;4.68;;;;;;;15.00;100.00;92084.94;2098689;28;20019;-83
2023/08/01 04:24:24;;;;;;;14.23;5.60;;;;;;;14.96;100.00;92092.44;2098308;28;20024;-83
2023/08/01 04:25:26;;;;;;;12.40;4.65;;;;;;;15.07;100.00;92095.31;2090694;28;20066;-84
2023/08/01 04:26:30;;;;;;;9.82;4.72;;;;;;;14.98;100.00;92095.44;2089814;28;20489;-83
2023/08/01 04:27:31;;;;;;;12.57;4.82;;;;;;;14.99;100.00;92102.28;2082401;28;20029;-82
2023/08/01 04:28:33;;;;;;;12.23;4.75;;;;;;;15.02;100.00;92106.00;2095533;28;20056;-82
2023/08/01 04:29:34;;;;;;;15.38;4.65;;;;;;;14.88;100.00;92107.50;2081971;28;20453;-82
2023/08/01 04:30:38;;;;;;;10.32;4.97;;;;;;;14.90;100.00;92107.06;2085898;28;20166;-82
2023/08/01 04:31:39;;;;;;;10.52;4.75;;;;;;;15.00;100.00;92103.75;2097945;28;20115;-82
2023/08/01 04:32:40;;;;;;;9.15;4.72;;;;;;;15.02;100.00;92106.00;2089804;28;20434;-82
2023/08/01 04:33:44;;;;;;;12.88;5.10;;;;;;;15.13;100.00;92095.38;2096635;28;20036;-82
2023/08/01 04:34:47;;;;;;;14.30;4.57;;;;;;;15.00;100.00;92098.38;2095637;28;20415;-84
2023/08/01 04:35:49;;;;;;;9.20;4.97;;;;;;;15.15;100.00;92108.38;2090217;28;20045;-83
2023/08/01 04:36:50;;;;;;;11.25;5.57;;;;;;;15.03;100.00;92108.22;2086893;28;20028;-82
2023/08/01 04:37:54;;;;;;;8.20;4.78;;;;;;;14.92;100.00;92102.66;2088489;28;20045;-83
2023/08/01 04:38:55;;;;;;;10.63;4.97;;;;;;;15.08;100.00;92094.09;2091589;28;20033;-82
2023/08/01 04:39:56;;;;;;;12.63;4.88;;;;;;;15.08;100.00;92099.47;2094714;28;20021;-82
2023/08/01 04:40:57;;;;;;;11.05;5.03;;;;;;;15.01;100.00;92093.75;2106614;28;20043;-82
2023/08/01 04:41:58;;;;;;;9.93;4.82;;;;;;;15.07;100.00;92094.56;2100950;28;20048;-83
2023/08/01 04:42:59;;;;;;;10.13;5.05;;;;;;;14.93;100.00;92098.06;2106413;28;20375;-82
2023/08/01 04:43:59;;;;;;;9.30;4.85;;;;;;;15.25;100.00;92098.97;2089782;28;20480;-82